Time;durP1;ratioP1;P1;durP2;ratioP2;P2;SDS_P1;SDS_P2;PMS_P1;PMS_P2;Temp;Humidity;BMP_temperature;BMP_pressure;BME280_temperature;BME280_humidity;BME280_pressure;Samples;Min_cycle;Max_cycle;Signal;HPM_P1;HPM_P2
2022/04/12 00:00:28;;;;;;;14.30;10.82;;;8.80;99.90;;;;;;5082868;28;20726;-68
2022/04/12 00:02:54;;;;;;;15.52;10.77;;;8.80;99.90;;;;;;5083826;28;20081;-68
2022/04/12 00:05:20;;;;;;;15.10;11.07;;;8.80;99.90;;;;;;5084686;28;20051;-68
2022/04/12 00:07:45;;;;;;;15.70;11.07;;;8.80;99.90;;;;;;5086286;28;20420;-68
2022/04/12 00:10:12;;;;;;;14.68;10.43;;;8.70;99.90;;;;;;5087168;28;20356;-68
2022/04/12 00:12:38;;;;;;;15.95;11.52;;;8.70;99.90;;;;;;5085380;28;20047;-68
2022/04/12 00:15:05;;;;;;;15.50;11.60;;;8.60;99.90;;;;;;5087369;28;20044;-67
2022/04/12 00:20:15;;;;;;;15.98;11.18;;;8.60;99.90;;;;;;5085226;28;20048;-68
2022/04/12 00:22:41;;;;;;;17.58;11.13;;;8.50;99.90;;;;;;5085153;28;20040;-68
2022/04/12 00:25:09;;;;;;;14.23;10.73;;;8.40;99.90;;;;;;5087357;28;20157;-68
2022/04/12 00:27:39;;;;;;;14.82;10.60;;;8.40;99.90;;;;;;5082944;28;20059;-68
2022/04/12 00:30:07;;;;;;;14.35;11.02;;;8.30;99.90;;;;;;5082145;28;20521;-68
2022/04/12 00:32:33;;;;;;;15.82;11.45;;;8.30;99.90;;;;;;5072864;28;20109;-68
2022/04/12 00:34:59;;;;;;;14.90;10.75;;;8.30;99.90;;;;;;5085954;28;20483;-68
2022/04/12 00:37:25;;;;;;;14.55;10.82;;;8.30;99.90;;;;;;5084227;28;20449;-68
2022/04/12 00:39:52;;;;;;;17.33;11.20;;;8.30;99.90;;;;;;5083947;28;20123;-68
2022/04/12 00:42:17;;;;;;;16.13;10.65;;;8.30;99.90;;;;;;5085846;28;20036;-68
2022/04/12 00:44:43;;;;;;;15.73;10.75;;;8.20;99.90;;;;;;5085157;28;20048;-68
2022/04/12 00:47:08;;;;;;;15.95;11.13;;;8.20;99.90;;;;;;5084668;28;20036;-68
2022/04/12 00:49:34;;;;;;;13.60;10.10;;;8.20;99.90;;;;;;5084851;28;20036;-68
2022/04/12 00:52:00;;;;;;;16.83;11.07;;;8.20;99.90;;;;;;5084146;28;20076;-68
2022/04/12 00:54:26;;;;;;;13.60;10.63;;;8.10;99.90;;;;;;5085399;28;20070;-68
2022/04/12 00:56:52;;;;;;;15.82;11.23;;;8.10;99.90;;;;;;5085177;28;20090;-68
2022/04/12 00:59:19;;;;;;;16.42;10.90;;;8.10;99.90;;;;;;5084080;28;20032;-68
2022/04/12 01:01:44;;;;;;;16.42;10.68;;;8.10;99.90;;;;;;5084226;28;20126;-68
2022/04/12 01:04:10;;;;;;;14.13;10.95;;;8.00;99.90;;;;;;5082308;28;20092;-68
2022/04/12 01:06:39;;;;;;;14.95;10.35;;;8.00;99.90;;;;;;5084631;28;20140;-68
2022/04/12 01:09:05;;;;;;;15.07;10.40;;;8.00;99.90;;;;;;5082977;28;20119;-67
2022/04/12 01:11:33;;;;;;;15.48;10.75;;;8.00;99.90;;;;;;5087873;28;20052;-68
2022/04/12 01:13:59;;;;;;;15.73;11.55;;;7.90;99.90;;;;;;5083442;28;20048;-68
2022/04/12 01:16:25;;;;;;;14.65;10.65;;;7.90;99.90;;;;;;5066010;28;20055;-68
2022/04/12 01:18:50;;;;;;;13.98;9.90;;;7.80;99.90;;;;;;5082608;28;20051;-67
2022/04/12 01:21:16;;;;;;;16.13;11.70;;;7.80;99.90;;;;;;5083896;28;20044;-67
2022/04/12 01:24:04;;;;;;;13.88;10.02;;;7.80;99.90;;;;;;5081968;28;20477;-68
2022/04/12 01:26:30;;;;;;;15.50;10.63;;;7.80;99.90;;;;;;5084636;28;20043;-68
2022/04/12 01:28:56;;;;;;;16.67;11.10;;;7.80;99.90;;;;;;5080605;28;20048;-68
2022/04/12 01:31:25;;;;;;;14.77;10.75;;;7.70;99.90;;;;;;5081994;28;20048;-68
2022/04/12 01:33:51;;;;;;;13.85;10.48;;;7.70;99.90;;;;;;5082893;28;20518;-68
2022/04/12 01:36:16;;;;;;;15.27;10.43;;;7.70;99.90;;;;;;5084079;28;20044;-68
2022/04/12 01:38:42;;;;;;;14.05;9.95;;;7.70;99.90;;;;;;5081644;28;20106;-68
2022/04/12 01:41:07;;;;;;;14.27;10.23;;;7.60;99.90;;;;;;5080452;28;20052;-68
2022/04/12 01:43:33;;;;;;;14.57;10.15;;;7.60;99.90;;;;;;5080907;28;20082;-68
2022/04/12 01:45:59;;;;;;;14.93;10.57;;;7.60;99.90;;;;;;5081953;28;20044;-68
2022/04/12 01:48:25;;;;;;;13.98;10.27;;;7.60;99.90;;;;;;5080289;28;20079;-68
2022/04/12 01:50:51;;;;;;;14.50;10.32;;;7.50;99.90;;;;;;5084115;28;20163;-68
2022/04/12 01:53:16;;;;;;;14.93;10.10;;;7.50;99.90;;;;;;5084139;28;20178;-68
2022/04/12 01:55:42;;;;;;;14.63;9.45;;;7.50;99.90;;;;;;5085549;28;20451;-68
2022/04/12 01:58:07;;;;;;;12.90;9.95;;;7.50;99.90;;;;;;5081316;28;20050;-68
2022/04/12 02:00:35;;;;;;;14.63;10.15;;;7.50;99.90;;;;;;5083378;28;20040;-68
2022/04/12 02:03:00;;;;;;;13.82;9.73;;;7.50;99.90;;;;;;5080683;28;20047;-68
2022/04/12 02:05:26;;;;;;;12.68;9.02;;;7.50;99.90;;;;;;5084713;28;20047;-68
2022/04/12 02:07:52;;;;;;;14.02;9.90;;;7.50;99.90;;;;;;5083596;28;20455;-68
2022/04/12 02:10:20;;;;;;;13.52;9.10;;;7.50;99.90;;;;;;5085385;28;20495;-68
2022/04/12 02:12:45;;;;;;;13.38;9.52;;;7.50;99.90;;;;;;5082616;28;20480;-68
2022/04/12 02:15:11;;;;;;;13.80;9.73;;;7.40;99.90;;;;;;5083125;28;20048;-68
2022/04/12 02:17:36;;;;;;;14.65;9.60;;;7.40;99.90;;;;;;5079488;28;20050;-68
2022/04/12 02:20:02;;;;;;;13.57;9.88;;;7.40;99.90;;;;;;5080993;28;20039;-68
2022/04/12 02:22:28;;;;;;;13.40;9.73;;;7.40;99.90;;;;;;5081329;28;20151;-68
2022/04/12 02:24:53;;;;;;;16.27;9.80;;;7.40;99.90;;;;;;5082611;28;20341;-68
2022/04/12 02:27:19;;;;;;;13.20;9.18;;;7.40;99.90;;;;;;5080995;28;20460;-68
2022/04/12 02:29:44;;;;;;;13.50;9.57;;;7.40;99.90;;;;;;5083791;28;20044;-68
2022/04/12 02:32:10;;;;;;;14.25;9.30;;;7.30;99.90;;;;;;5081308;28;20050;-67
2022/04/12 02:34:35;;;;;;;14.90;9.35;;;7.30;99.90;;;;;;5084547;28;20048;-68
2022/04/12 02:37:01;;;;;;;13.50;9.25;;;7.30;99.90;;;;;;5082490;28;20097;-68
2022/04/12 02:39:27;;;;;;;14.57;8.90;;;7.30;99.90;;;;;;5080309;28;20078;-68
2022/04/12 02:41:52;;;;;;;13.48;9.32;;;7.30;99.90;;;;;;5085690;28;20067;-68
2022/04/12 02:44:18;;;;;;;12.60;9.23;;;7.30;99.90;;;;;;5082195;28;21210;-67
2022/04/12 02:46:43;;;;;;;13.13;9.57;;;7.30;99.90;;;;;;5082949;28;20048;-68
2022/04/12 02:49:09;;;;;;;13.85;9.55;;;7.20;99.90;;;;;;5080265;28;20032;-68
2022/04/12 02:51:35;;;;;;;12.40;8.73;;;7.20;99.90;;;;;;5083404;28;20048;-68
2022/04/12 02:54:00;;;;;;;12.93;9.00;;;7.20;99.90;;;;;;5081540;28;20171;-68
2022/04/12 02:56:26;;;;;;;14.63;9.10;;;7.20;99.90;;;;;;5084253;28;20050;-68
2022/04/12 02:58:52;;;;;;;13.15;9.32;;;7.20;99.90;;;;;;5083540;28;20518;-68
2022/04/12 03:01:17;;;;;;;13.20;9.85;;;7.20;99.90;;;;;;5080924;28;20494;-68
2022/04/12 03:03:43;;;;;;;14.48;9.38;;;7.20;99.90;;;;;;5077856;28;20066;-68
2022/04/12 03:06:08;;;;;;;12.70;8.77;;;7.20;99.90;;;;;;5083023;28;20043;-68
2022/04/12 03:08:34;;;;;;;13.73;9.02;;;7.10;99.90;;;;;;5082220;28;20032;-68
2022/04/12 03:10:59;;;;;;;13.48;8.90;;;7.10;99.90;;;;;;5084373;28;20051;-68
2022/04/12 03:13:25;;;;;;;12.00;9.38;;;7.10;99.90;;;;;;5083108;28;20036;-68
2022/04/12 03:15:50;;;;;;;15.30;9.40;;;7.10;99.90;;;;;;5083430;28;20444;-68
2022/04/12 03:18:17;;;;;;;13.73;9.32;;;7.10;99.90;;;;;;5081191;28;20040;-68
2022/04/12 03:20:43;;;;;;;15.80;9.98;;;7.20;99.90;;;;;;5088365;28;20051;-68
2022/04/12 03:23:09;;;;;;;13.40;9.95;;;7.20;99.90;;;;;;5087105;28;20040;-68
2022/04/12 03:25:34;;;;;;;13.95;9.32;;;7.20;99.90;;;;;;5089757;28;20040;-68
2022/04/12 03:28:00;;;;;;;13.13;8.80;;;7.10;99.90;;;;;;5084285;28;20032;-67
2022/04/12 03:30:26;;;;;;;13.25;9.77;;;7.10;99.90;;;;;;5087998;28;20365;-66
2022/04/12 03:32:52;;;;;;;14.27;10.10;;;7.10;99.90;;;;;;5081233;28;20032;-68
2022/04/12 03:35:18;;;;;;;14.05;8.85;;;7.10;99.90;;;;;;5084766;28;20044;-67
2022/04/12 03:37:43;;;;;;;14.40;9.63;;;7.10;99.90;;;;;;5085308;28;20164;-68
2022/04/12 03:40:09;;;;;;;12.32;9.50;;;7.00;99.90;;;;;;5087892;28;20372;-67
2022/04/12 03:42:35;;;;;;;14.77;9.52;;;7.00;99.90;;;;;;5084867;28;20440;-68
2022/04/12 03:45:01;;;;;;;13.75;8.80;;;7.00;99.90;;;;;;5085495;28;20333;-68
2022/04/12 03:47:26;;;;;;;13.30;9.27;;;7.00;99.90;;;;;;5083873;28;20044;-67
2022/04/12 03:49:52;;;;;;;13.50;8.95;;;7.00;99.90;;;;;;5086377;28;20067;-68
2022/04/12 03:52:17;;;;;;;13.98;9.35;;;6.90;99.90;;;;;;5086941;28;20123;-68
2022/04/12 03:54:43;;;;;;;13.88;8.88;;;6.90;99.90;;;;;;5085340;28;20130;-68
2022/04/12 03:57:09;;;;;;;14.25;9.75;;;6.90;99.90;;;;;;5081795;28;20040;-68
2022/04/12 03:59:35;;;;;;;12.13;8.80;;;6.90;99.90;;;;;;5086543;28;20504;-68
2022/04/12 04:02:00;;;;;;;12.60;9.30;;;6.90;99.90;;;;;;5085658;28;20484;-68
2022/04/12 04:04:26;;;;;;;12.85;8.73;;;6.80;99.90;;;;;;5081991;28;20051;-68
2022/04/12 04:06:51;;;;;;;12.73;8.68;;;6.90;99.90;;;;;;5086732;28;20131;-68
2022/04/12 04:09:17;;;;;;;12.55;8.50;;;6.90;99.90;;;;;;5085152;28;20070;-67
2022/04/12 04:11:42;;;;;;;11.93;8.68;;;6.90;99.90;;;;;;5086934;28;20032;-68
2022/04/12 04:14:10;;;;;;;13.48;8.60;;;6.90;99.90;;;;;;5081735;28;20399;-68
2022/04/12 04:16:39;;;;;;;12.68;8.38;;;6.90;99.90;;;;;;5085380;28;20065;-67
2022/04/12 04:19:08;;;;;;;12.40;8.98;;;6.90;99.90;;;;;;5080584;28;20373;-67
2022/04/12 04:21:37;;;;;;;12.52;8.18;;;6.90;99.90;;;;;;5086352;28;20055;-67
2022/04/12 04:24:04;;;;;;;11.25;8.10;;;6.90;99.90;;;;;;5081189;28;20036;-67
2022/04/12 04:26:29;;;;;;;13.20;8.57;;;6.90;99.90;;;;;;5088560;28;20036;-67
2022/04/12 04:28:55;;;;;;;11.38;7.88;;;6.80;99.90;;;;;;5085086;28;20153;-66
2022/04/12 04:31:21;;;;;;;11.90;8.27;;;6.80;99.90;;;;;;5081187;28;20044;-66
2022/04/12 04:33:47;;;;;;;13.35;8.80;;;6.80;99.90;;;;;;5081953;28;20441;-68
2022/04/12 04:36:13;;;;;;;11.93;8.85;;;6.80;99.90;;;;;;5081345;28;20144;-68
2022/04/12 04:38:38;;;;;;;12.88;8.15;;;6.80;99.90;;;;;;5076951;28;20048;-68
2022/04/12 04:41:04;;;;;;;13.38;8.43;;;6.80;99.90;;;;;;5082153;28;20468;-68
2022/04/12 04:43:29;;;;;;;13.30;8.27;;;6.80;99.90;;;;;;5085608;28;20052;-68
2022/04/12 04:45:55;;;;;;;12.18;8.10;;;6.70;99.90;;;;;;5085804;28;20077;-68
2022/04/12 04:48:21;;;;;;;11.80;8.10;;;6.80;99.90;;;;;;5084891;28;20059;-68
2022/04/12 04:50:47;;;;;;;14.52;8.45;;;6.70;99.90;;;;;;5082270;28;20064;-69
2022/04/12 04:53:12;;;;;;;11.90;8.68;;;6.80;99.90;;;;;;5088031;28;20079;-68
2022/04/12 04:55:42;;;;;;;14.40;8.63;;;6.70;99.90;;;;;;5086235;28;20055;-69
2022/04/12 04:58:08;;;;;;;12.82;8.65;;;6.70;99.90;;;;;;5086275;28;20039;-69
2022/04/12 05:00:34;;;;;;;12.57;9.00;;;6.70;99.90;;;;;;5086395;28;20032;-69
2022/04/12 05:03:01;;;;;;;12.45;8.65;;;6.70;99.90;;;;;;5084528;28;20051;-69
2022/04/12 05:05:27;;;;;;;11.90;8.05;;;6.70;99.90;;;;;;5086061;28;20090;-69
2022/04/12 05:07:55;;;;;;;13.90;9.00;;;6.80;99.90;;;;;;5084663;28;20064;-68
2022/04/12 05:10:26;;;;;;;12.98;8.55;;;6.80;99.90;;;;;;5087951;28;20047;-69
2022/04/12 05:12:51;;;;;;;13.82;8.93;;;6.80;99.90;;;;;;5079256;28;20044;-68
2022/04/12 05:15:17;;;;;;;11.15;8.00;;;6.90;99.90;;;;;;5079370;28;20479;-69
2022/04/12 05:17:53;;;;;;;11.73;7.88;;;6.90;99.90;;;;;;5080171;28;20637;-69
2022/04/12 05:20:20;;;;;;;13.65;8.70;;;7.00;99.90;;;;;;5081268;28;20068;-68
2022/04/12 05:22:46;;;;;;;12.93;7.53;;;7.10;99.90;;;;;;5076493;28;20040;-68
2022/04/12 05:25:12;;;;;;;11.55;7.60;;;7.20;99.90;;;;;;5081662;28;20047;-69
2022/04/12 05:27:37;;;;;;;11.85;8.02;;;7.30;99.90;;;;;;5073753;28;20076;-68
2022/04/12 05:30:07;;;;;;;13.68;8.55;;;7.30;99.90;;;;;;5084710;28;20043;-67
2022/04/12 05:32:33;;;;;;;11.80;8.85;;;7.40;99.90;;;;;;5082805;28;20035;-69
2022/04/12 05:34:58;;;;;;;11.05;8.18;;;7.50;99.90;;;;;;5085189;28;20155;-68
2022/04/12 05:37:24;;;;;;;12.18;8.63;;;7.60;99.90;;;;;;5080632;28;20117;-68
2022/04/12 05:39:49;;;;;;;11.25;8.15;;;7.70;99.90;;;;;;5083736;28;20047;-67
2022/04/12 05:42:15;;;;;;;11.63;8.00;;;7.80;99.90;;;;;;5080058;28;20050;-68
2022/04/12 05:44:41;;;;;;;12.80;7.63;;;7.90;99.90;;;;;;5077811;28;20028;-67
2022/04/12 05:47:10;;;;;;;11.15;7.60;;;7.90;99.90;;;;;;5078191;28;20036;-67
2022/04/12 05:49:35;;;;;;;13.68;7.97;;;8.00;99.90;;;;;;5075884;28;20100;-67
2022/04/12 05:52:01;;;;;;;13.77;8.13;;;8.00;99.90;;;;;;5080329;28;20060;-67
2022/04/12 05:54:27;;;;;;;12.90;7.95;;;8.00;99.90;;;;;;5075939;28;20081;-67
2022/04/12 05:56:52;;;;;;;11.48;7.78;;;8.00;99.90;;;;;;5075405;28;20461;-68
2022/04/12 05:59:18;;;;;;;13.00;7.63;;;8.00;99.90;;;;;;5079955;28;20153;-68
2022/04/12 06:01:43;;;;;;;10.75;7.53;;;8.00;99.90;;;;;;5077242;28;20071;-67
2022/04/12 06:04:09;;;;;;;13.15;8.45;;;8.00;99.90;;;;;;5083269;28;20059;-68
2022/04/12 06:06:36;;;;;;;10.80;8.00;;;8.00;99.90;;;;;;5084934;28;20044;-67
2022/04/12 06:09:02;;;;;;;12.88;8.00;;;8.10;99.90;;;;;;5085536;28;20058;-68
2022/04/12 06:11:28;;;;;;;11.55;8.05;;;8.10;99.90;;;;;;5085347;28;20116;-67
2022/04/12 06:13:54;;;;;;;12.30;7.88;;;8.20;99.90;;;;;;5087067;28;20499;-67
2022/04/12 06:16:20;;;;;;;10.32;7.57;;;8.20;99.90;;;;;;5084903;28;20036;-67
2022/04/12 06:18:45;;;;;;;11.77;7.85;;;8.30;99.90;;;;;;5086909;28;20097;-68
2022/04/12 06:21:11;;;;;;;13.75;7.60;;;8.40;99.90;;;;;;5083209;28;20521;-68
2022/04/12 06:23:37;;;;;;;12.57;7.50;;;8.40;99.90;;;;;;5065980;28;20433;-68
2022/04/12 06:26:02;;;;;;;12.27;7.32;;;8.40;99.90;;;;;;5066022;28;20400;-68
2022/04/12 06:28:29;;;;;;;11.68;7.75;;;8.50;99.90;;;;;;5076161;28;20036;-67
2022/04/12 06:30:57;;;;;;;12.15;7.50;;;8.50;99.90;;;;;;5085810;28;20495;-67
2022/04/12 06:33:23;;;;;;;11.20;7.20;;;8.60;99.90;;;;;;5086042;28;20059;-68
2022/04/12 06:35:49;;;;;;;10.98;7.32;;;8.60;99.90;;;;;;5088008;28;20040;-68
2022/04/12 06:38:14;;;;;;;12.90;7.97;;;8.60;99.90;;;;;;5066701;28;20046;-67
2022/04/12 06:40:41;;;;;;;11.98;7.55;;;8.60;99.90;;;;;;5085571;28;20054;-68
2022/04/12 06:43:07;;;;;;;11.30;7.32;;;8.50;99.90;;;;;;5084650;28;20055;-68
2022/04/12 06:45:32;;;;;;;12.20;7.80;;;8.50;99.90;;;;;;5085172;28;20520;-68
2022/04/12 06:47:59;;;;;;;13.45;7.80;;;8.50;99.90;;;;;;5084747;28;20538;-68
2022/04/12 06:50:26;;;;;;;11.38;7.55;;;8.60;99.90;;;;;;5084598;28;20040;-68
2022/04/12 06:52:57;;;;;;;14.27;8.15;;;8.60;99.90;;;;;;5087283;28;20048;-68
2022/04/12 06:55:23;;;;;;;10.57;7.45;;;8.70;99.90;;;;;;5091658;28;20123;-68
2022/04/12 06:57:48;;;;;;;10.45;7.07;;;8.70;99.90;;;;;;5088063;28;20119;-69
2022/04/12 07:00:17;;;;;;;12.98;8.00;;;8.80;99.90;;;;;;5090934;28;20119;-68
2022/04/12 07:02:42;;;;;;;11.55;7.00;;;8.80;99.90;;;;;;5089451;28;20123;-68
2022/04/12 07:05:08;;;;;;;11.48;7.72;;;8.70;99.90;;;;;;5087655;28;20501;-68
2022/04/12 07:07:38;;;;;;;11.93;7.20;;;8.70;99.90;;;;;;5088823;28;20439;-68
2022/04/12 07:10:05;;;;;;;11.80;7.53;;;8.80;99.90;;;;;;5090710;28;20108;-68
2022/04/12 07:12:31;;;;;;;11.68;7.05;;;8.80;99.90;;;;;;5088642;28;20505;-68
2022/04/12 07:14:56;;;;;;;11.70;7.63;;;8.90;99.90;;;;;;5090436;28;20131;-68
2022/04/12 07:17:22;;;;;;;12.68;7.28;;;9.10;99.90;;;;;;5089268;28;20052;-69
2022/04/12 07:19:48;;;;;;;12.60;7.10;;;9.20;99.90;;;;;;5090773;28;20119;-69
2022/04/12 07:22:13;;;;;;;10.95;7.38;;;9.30;99.90;;;;;;5088406;28;20047;-68
2022/04/12 07:24:39;;;;;;;10.82;7.53;;;9.40;99.90;;;;;;5087998;28;20075;-68
2022/04/12 07:27:04;;;;;;;11.90;7.13;;;9.50;99.90;;;;;;5088666;28;20432;-68
2022/04/12 07:29:30;;;;;;;11.10;7.45;;;9.60;99.90;;;;;;5089015;28;20355;-68
2022/04/12 07:31:56;;;;;;;12.32;8.50;;;9.70;99.90;;;;;;5089528;28;20577;-68
2022/04/12 07:34:22;;;;;;;11.70;7.05;;;9.80;99.90;;;;;;5087407;28;20113;-68
2022/04/12 07:36:53;;;;;;;13.35;8.20;;;9.90;99.90;;;;;;5090490;28;20047;-68
2022/04/12 07:39:22;;;;;;;11.35;6.93;;;10.00;99.90;;;;;;5088003;28;20056;-68
2022/04/12 07:41:48;;;;;;;11.85;7.68;;;10.10;99.90;;;;;;5089649;28;20433;-68
2022/04/12 07:44:14;;;;;;;11.93;7.13;;;10.20;99.90;;;;;;5087799;28;20460;-68
2022/04/12 07:46:40;;;;;;;11.10;7.22;;;10.30;99.90;;;;;;5089957;28;20167;-69
2022/04/12 07:49:06;;;;;;;10.90;7.47;;;10.40;99.90;;;;;;5087724;28;20155;-68
2022/04/12 07:51:31;;;;;;;11.85;7.88;;;10.60;99.90;;;;;;5090237;28;20047;-68
2022/04/12 07:53:57;;;;;;;14.98;7.88;;;10.70;99.90;;;;;;5088581;28;20056;-68
2022/04/12 07:56:23;;;;;;;12.40;7.20;;;10.90;99.90;;;;;;5088760;28;20044;-68
2022/04/12 07:58:48;;;;;;;12.00;7.43;;;11.00;99.90;;;;;;5090477;28;20048;-69
2022/04/12 08:01:14;;;;;;;11.73;7.55;;;11.10;99.90;;;;;;5086583;28;20062;-68
2022/04/12 08:03:40;;;;;;;12.52;7.50;;;11.20;99.90;;;;;;5088717;28;20137;-69
2022/04/12 08:06:06;;;;;;;13.43;7.68;;;11.30;99.90;;;;;;5087180;28;20036;-68
2022/04/12 08:08:32;;;;;;;10.93;7.63;;;11.50;99.90;;;;;;5088417;28;20043;-68
2022/04/12 08:10:58;;;;;;;13.75;7.63;;;11.60;99.90;;;;;;5089974;28;20051;-68
2022/04/12 08:13:24;;;;;;;12.75;7.47;;;11.70;99.90;;;;;;5070916;28;20040;-68
2022/04/12 08:15:50;;;;;;;10.20;6.45;;;11.80;99.90;;;;;;5085996;28;20528;-68
2022/04/12 08:18:15;;;;;;;10.10;7.07;;;11.80;99.70;;;;;;5087945;28;20048;-69
2022/04/12 08:20:41;;;;;;;10.90;7.13;;;11.90;98.80;;;;;;5090187;28;20031;-68
2022/04/12 08:23:06;;;;;;;12.27;6.88;;;12.00;98.70;;;;;;5087211;28;20830;-68
2022/04/12 08:25:32;;;;;;;10.30;6.93;;;12.00;98.70;;;;;;5085912;28;20048;-69
2022/04/12 08:27:57;;;;;;;9.85;6.63;;;12.10;98.60;;;;;;5088669;28;20048;-68
2022/04/12 08:30:23;;;;;;;10.25;6.90;;;12.20;98.00;;;;;;5088176;28;20555;-69
2022/04/12 08:32:49;;;;;;;10.77;7.43;;;12.30;98.20;;;;;;5087266;28;20036;-68
2022/04/12 08:35:14;;;;;;;13.07;7.18;;;12.50;97.80;;;;;;5086531;28;20388;-68
2022/04/12 08:37:40;;;;;;;10.20;6.82;;;12.50;96.90;;;;;;5083643;28;20090;-68
2022/04/12 08:40:07;;;;;;;10.32;6.90;;;12.60;96.70;;;;;;5068862;28;20040;-68
2022/04/12 08:42:32;;;;;;;10.23;6.60;;;12.70;96.40;;;;;;5086033;28;20514;-68
2022/04/12 08:44:58;;;;;;;10.27;6.93;;;12.90;96.80;;;;;;5088483;28;20254;-68
2022/04/12 08:47:24;;;;;;;11.27;7.40;;;13.00;97.00;;;;;;5086320;28;20385;-68
2022/04/12 08:49:50;;;;;;;11.18;7.00;;;13.10;96.30;;;;;;5089952;28;20067;-68
2022/04/12 08:52:16;;;;;;;11.07;6.75;;;13.20;95.60;;;;;;5088184;28;20056;-68
2022/04/12 08:54:44;;;;;;;13.40;7.03;;;13.30;95.20;;;;;;5087330;28;20055;-69
2022/04/12 08:57:11;;;;;;;12.23;7.38;;;13.40;94.60;;;;;;5087912;28;20544;-68
2022/04/12 08:59:37;;;;;;;9.93;6.47;;;13.50;94.20;;;;;;5089339;28;20039;-68
2022/04/12 09:02:06;;;;;;;11.55;7.22;;;13.60;93.80;;;;;;5086127;28;20122;-69
2022/04/12 09:04:33;;;;;;;9.77;6.90;;;13.70;92.80;;;;;;5082069;28;20052;-69
2022/04/12 09:06:59;;;;;;;10.32;7.10;;;13.70;92.70;;;;;;5088131;28;20055;-69
2022/04/12 09:09:27;;;;;;;11.88;7.38;;;13.70;92.40;;;;;;5088116;28;20119;-68
2022/04/12 09:11:56;;;;;;;10.10;7.05;;;13.70;92.60;;;;;;5085547;28;20062;-69
2022/04/12 09:14:21;;;;;;;11.27;6.45;;;13.90;93.00;;;;;;5087018;28;20445;-68
2022/04/12 09:16:47;;;;;;;10.27;6.53;;;14.00;93.60;;;;;;5088604;28;20046;-69
2022/04/12 09:19:13;;;;;;;10.55;6.63;;;14.10;93.60;;;;;;5087768;28;20417;-68
2022/04/12 09:21:46;;;;;;;10.40;6.55;;;14.20;93.70;;;;;;5086505;28;20471;-68
2022/04/12 09:24:21;;;;;;;9.82;6.05;;;14.40;93.10;;;;;;5083829;28;20048;-69
2022/04/12 09:26:57;;;;;;;10.65;6.75;;;14.40;91.80;;;;;;5087527;28;20044;-69
2022/04/12 09:29:27;;;;;;;11.85;7.25;;;14.50;91.90;;;;;;5088737;28;20422;-67
2022/04/12 09:31:59;;;;;;;10.20;6.97;;;14.50;91.70;;;;;;5085607;28;20087;-68
2022/04/12 09:34:25;;;;;;;9.40;6.40;;;14.60;91.30;;;;;;5086907;28;20124;-68
2022/04/12 09:36:51;;;;;;;10.18;6.60;;;14.70;91.90;;;;;;5088917;28;20048;-68
2022/04/12 09:39:19;;;;;;;10.23;6.65;;;14.70;91.70;;;;;;5088569;28;20039;-68
2022/04/12 09:41:48;;;;;;;11.98;6.30;;;14.90;92.10;;;;;;5086396;28;20060;-68
2022/04/12 09:44:17;;;;;;;9.48;6.40;;;15.00;92.90;;;;;;5086903;28;20113;-68
2022/04/12 09:46:43;;;;;;;10.88;6.95;;;15.20;92.60;;;;;;5087656;28;20044;-67
2022/04/12 09:49:10;;;;;;;9.30;6.45;;;15.30;91.90;;;;;;5085470;28;20048;-68
2022/04/12 09:51:37;;;;;;;8.40;5.70;;;15.30;91.60;;;;;;5087377;28;20047;-68
2022/04/12 09:54:07;;;;;;;8.77;5.22;;;15.40;91.70;;;;;;5082941;28;20047;-68
2022/04/12 09:56:39;;;;;;;9.55;5.65;;;15.50;90.60;;;;;;5087482;28;20456;-68
2022/04/12 09:59:09;;;;;;;8.52;5.72;;;15.60;88.30;;;;;;5086557;28;20054;-67
2022/04/12 10:01:41;;;;;;;10.27;6.20;;;15.70;86.40;;;;;;5086751;28;20052;-67
2022/04/12 10:04:09;;;;;;;8.27;5.30;;;15.70;84.10;;;;;;5085790;28;20918;-68
2022/04/12 10:06:40;;;;;;;9.02;5.53;;;15.80;84.30;;;;;;5087755;28;20115;-68
2022/04/12 10:09:07;;;;;;;9.93;5.57;;;15.80;84.60;;;;;;5086115;28;20048;-67
2022/04/12 10:11:35;;;;;;;9.05;5.30;;;15.90;83.70;;;;;;5085946;28;20078;-67
2022/04/12 10:14:01;;;;;;;9.60;5.70;;;16.00;83.90;;;;;;5086498;28;20073;-68
2022/04/12 10:16:27;;;;;;;8.43;5.30;;;16.00;84.80;;;;;;5086179;28;20062;-68
2022/04/12 10:18:54;;;;;;;7.57;4.88;;;16.10;85.10;;;;;;5086682;28;20041;-67
2022/04/12 10:21:22;;;;;;;9.55;5.28;;;16.10;82.60;;;;;;5087896;28;20048;-67
2022/04/12 10:23:54;;;;;;;7.90;4.75;;;16.20;82.10;;;;;;5086311;28;20345;-67
2022/04/12 10:26:22;;;;;;;8.25;5.10;;;16.20;82.50;;;;;;5082245;28;20124;-67
2022/04/12 10:28:53;;;;;;;12.98;6.07;;;16.30;82.70;;;;;;5087728;28;20093;-67
2022/04/12 10:31:22;;;;;;;9.98;5.50;;;16.40;83.00;;;;;;5086094;28;20054;-67
2022/04/12 10:34:14;;;;;;;8.93;5.40;;;16.40;83.60;;;;;;5090483;28;20379;-67
2022/04/12 10:36:55;;;;;;;9.40;5.70;;;16.50;81.00;;;;;;5084983;28;20131;-67
2022/04/12 10:39:48;;;;;;;8.88;5.70;;;16.60;80.50;;;;;;5089798;28;20143;-68
2022/04/12 10:42:19;;;;;;;9.50;5.80;;;16.60;78.50;;;;;;5089283;28;20047;-67
2022/04/12 10:44:47;;;;;;;9.07;5.60;;;16.60;77.80;;;;;;5090352;28;20036;-67
2022/04/12 10:47:22;;;;;;;10.00;5.63;;;16.60;78.60;;;;;;5088862;28;20414;-67
2022/04/12 10:49:57;;;;;;;8.75;5.75;;;16.70;80.10;;;;;;5090294;28;20123;-67
2022/04/12 10:52:52;;;;;;;10.50;5.35;;;16.80;82.40;;;;;;5078654;28;20074;-67
2022/04/12 10:55:27;;;;;;;9.60;5.55;;;16.80;75.70;;;;;;5073538;28;20093;-68
2022/04/12 10:57:53;;;;;;;8.43;5.30;;;16.80;76.90;;;;;;5090217;28;20098;-67
2022/04/12 11:00:23;;;;;;;9.60;6.15;;;16.80;77.20;;;;;;5089100;28;20460;-67
2022/04/12 11:02:59;;;;;;;9.57;5.90;;;16.80;77.20;;;;;;5090162;28;20040;-67
2022/04/12 11:05:33;;;;;;;7.78;5.45;;;16.90;76.40;;;;;;5089071;28;20123;-67
2022/04/12 11:08:31;;;;;;;10.30;5.93;;;17.00;77.20;;;;;;5091113;28;20171;-67
2022/04/12 11:10:57;;;;;;;9.25;5.97;;;17.10;78.20;;;;;;5048658;28;20052;-67
2022/04/12 11:13:27;;;;;;;9.82;6.30;;;17.30;78.70;;;;;;5089213;28;20341;-67
2022/04/12 11:16:10;;;;;;;9.48;6.20;;;17.40;77.00;;;;;;5089262;28;20052;-67
2022/04/12 11:18:48;;;;;;;11.52;6.70;;;17.50;75.50;;;;;;5087260;28;20347;-67
2022/04/12 11:21:14;;;;;;;11.23;5.90;;;17.60;76.60;;;;;;5090846;28;20069;-67
2022/04/12 11:23:51;;;;;;;9.77;6.18;;;17.70;76.70;;;;;;5091740;28;20088;-67
2022/04/12 11:26:40;;;;;;;10.90;6.13;;;17.80;76.30;;;;;;5086759;28;20097;-68
2022/04/12 11:29:10;;;;;;;10.82;6.70;;;17.90;74.50;;;;;;5087437;28;20452;-67
2022/04/12 11:31:44;;;;;;;11.18;6.90;;;18.00;74.30;;;;;;5089710;28;20056;-68
2022/04/12 11:34:11;;;;;;;7.88;5.60;;;18.00;72.90;;;;;;5088186;28;20044;-67
2022/04/12 11:36:50;;;;;;;10.23;6.20;;;18.10;72.90;;;;;;5072705;28;20075;-67
2022/04/12 11:39:21;;;;;;;9.70;5.72;;;18.10;73.30;;;;;;5088463;28;20114;-67
2022/04/12 11:41:47;;;;;;;9.13;5.47;;;18.30;74.10;;;;;;5089801;28;20792;-67
2022/04/12 11:44:13;;;;;;;12.20;6.10;;;18.40;74.50;;;;;;5088712;28;20417;-67
2022/04/12 11:46:39;;;;;;;9.57;6.10;;;18.60;73.90;;;;;;5089604;28;20055;-67
2022/04/12 11:49:13;;;;;;;9.23;5.68;;;18.70;71.90;;;;;;5087737;28;20040;-67
2022/04/12 11:51:40;;;;;;;9.40;6.00;;;18.90;69.40;;;;;;5088171;28;20036;-67
2022/04/12 11:54:26;;;;;;;9.93;6.05;;;19.00;70.10;;;;;;5086894;28;20439;-68
2022/04/12 11:57:02;;;;;;;9.73;5.65;;;19.00;69.60;;;;;;5087596;28;20358;-68
2022/04/12 11:59:29;;;;;;;8.40;5.32;;;19.00;68.90;;;;;;5090805;28;20094;-68
2022/04/12 12:02:01;;;;;;;9.95;6.07;;;18.90;68.70;;;;;;5088082;28;20115;-68
2022/04/12 12:04:30;;;;;;;9.93;6.50;;;18.90;69.80;;;;;;5089408;28;20067;-68
2022/04/12 12:07:06;;;;;;;9.30;6.00;;;19.00;70.50;;;;;;5087138;28;20051;-68
2022/04/12 12:09:34;;;;;;;11.73;6.25;;;19.10;70.10;;;;;;5090244;28;20070;-68
2022/04/12 12:12:08;;;;;;;9.90;6.20;;;19.10;69.50;;;;;;5087777;28;20421;-68
2022/04/12 12:14:35;;;;;;;9.68;6.18;;;19.10;67.80;;;;;;5087618;28;20129;-68
2022/04/12 12:17:06;;;;;;;9.95;6.10;;;19.20;68.10;;;;;;5088635;28;20040;-68
2022/04/12 12:19:33;;;;;;;10.05;5.93;;;19.40;67.70;;;;;;5090803;28;20048;-68
2022/04/12 12:22:02;;;;;;;12.80;6.57;;;19.50;68.80;;;;;;5088310;28;20403;-69
2022/04/12 12:24:28;;;;;;;9.88;6.47;;;19.60;67.80;;;;;;5089531;28;20032;-68
2022/04/12 12:26:56;;;;;;;10.60;6.35;;;19.70;67.70;;;;;;5086699;28;20120;-68
2022/04/12 12:29:22;;;;;;;14.40;7.07;;;19.70;67.70;;;;;;5089157;28;20118;-68
2022/04/12 12:31:48;;;;;;;9.93;6.57;;;19.60;65.70;;;;;;5088090;28;20051;-68
2022/04/12 12:34:26;;;;;;;10.27;6.57;;;19.50;65.80;;;;;;5089344;28;20563;-69
2022/04/12 12:36:52;;;;;;;10.90;6.40;;;19.50;66.20;;;;;;5087407;28;20036;-68
2022/04/12 12:39:20;;;;;;;11.00;6.30;;;19.40;67.30;;;;;;5089111;28;20043;-68
2022/04/12 12:41:46;;;;;;;9.57;6.18;;;19.40;67.00;;;;;;5085870;28;20165;-68
2022/04/12 12:44:13;;;;;;;10.55;6.95;;;19.40;67.60;;;;;;5087280;28;20138;-68
2022/04/12 12:46:39;;;;;;;10.60;6.80;;;19.40;67.40;;;;;;5088122;28;20418;-68